sensor_id;sensor_type;location;lat;lon;timestamp;temperature;humidity
66586;SHT30;53444;45.822;16.092;2022-08-21T00:01:14;20.04;80.49
66586;SHT30;53444;45.822;16.092;2022-08-21T00:03:43;19.90;81.01
66586;SHT30;53444;45.822;16.092;2022-08-21T00:06:10;19.78;81.27
66586;SHT30;53444;45.822;16.092;2022-08-21T00:08:36;19.94;80.80
66586;SHT30;53444;45.822;16.092;2022-08-21T00:11:06;19.98;80.61
66586;SHT30;53444;45.822;16.092;2022-08-21T00:13:33;19.84;81.10
66586;SHT30;53444;45.822;16.092;2022-08-21T00:16:00;19.97;80.81
66586;SHT30;53444;45.822;16.092;2022-08-21T00:18:27;20.04;80.56
66586;SHT30;53444;45.822;16.092;2022-08-21T00:20:55;19.73;81.72
66586;SHT30;53444;45.822;16.092;2022-08-21T00:23:22;19.63;82.33
66586;SHT30;53444;45.822;16.092;2022-08-21T00:25:49;19.73;81.97
66586;SHT30;53444;45.822;16.092;2022-08-21T00:28:16;19.83;81.61
66586;SHT30;53444;45.822;16.092;2022-08-21T00:30:43;19.85;81.36
66586;SHT30;53444;45.822;16.092;2022-08-21T00:33:11;19.98;81.08
66586;SHT30;53444;45.822;16.092;2022-08-21T00:35:40;19.85;81.24
66586;SHT30;53444;45.822;16.092;2022-08-21T00:38:09;19.94;81.07
66586;SHT30;53444;45.822;16.092;2022-08-21T00:40:39;19.91;81.31
66586;SHT30;53444;45.822;16.092;2022-08-21T00:43:08;19.83;81.58
66586;SHT30;53444;45.822;16.092;2022-08-21T00:45:36;19.90;81.46
66586;SHT30;53444;45.822;16.092;2022-08-21T00:48:03;19.78;81.42
66586;SHT30;53444;45.822;16.092;2022-08-21T00:50:33;19.77;81.59
66586;SHT30;53444;45.822;16.092;2022-08-21T00:53:03;19.66;82.09
66586;SHT30;53444;45.822;16.092;2022-08-21T00:55:33;19.71;81.81
66586;SHT30;53444;45.822;16.092;2022-08-21T00:58:04;19.71;81.80
66586;SHT30;53444;45.822;16.092;2022-08-21T01:00:35;19.70;81.21
66586;SHT30;53444;45.822;16.092;2022-08-21T01:03:07;19.76;80.65
66586;SHT30;53444;45.822;16.092;2022-08-21T01:05:34;19.67;81.02
66586;SHT30;53444;45.822;16.092;2022-08-21T01:08:02;19.81;80.40
66586;SHT30;53444;45.822;16.092;2022-08-21T01:10:29;19.42;82.44
66586;SHT30;53444;45.822;16.092;2022-08-21T01:12:58;19.42;82.59
66586;SHT30;53444;45.822;16.092;2022-08-21T01:15:27;19.16;83.70
66586;SHT30;53444;45.822;16.092;2022-08-21T01:17:55;18.88;84.91
66586;SHT30;53444;45.822;16.092;2022-08-21T01:20:22;18.69;85.47
66586;SHT30;53444;45.822;16.092;2022-08-21T01:22:50;18.78;85.26
66586;SHT30;53444;45.822;16.092;2022-08-21T01:25:18;19.02;83.69
66586;SHT30;53444;45.822;16.092;2022-08-21T01:27:46;19.20;83.10
66586;SHT30;53444;45.822;16.092;2022-08-21T01:30:16;19.35;82.18
66586;SHT30;53444;45.822;16.092;2022-08-21T01:32:44;19.45;81.38
66586;SHT30;53444;45.822;16.092;2022-08-21T01:35:12;19.53;80.81
66586;SHT30;53444;45.822;16.092;2022-08-21T01:37:39;19.67;80.20
66586;SHT30;53444;45.822;16.092;2022-08-21T01:40:09;19.62;80.86
66586;SHT30;53444;45.822;16.092;2022-08-21T01:42:36;19.45;81.80
66586;SHT30;53444;45.822;16.092;2022-08-21T01:45:04;19.37;82.29
66586;SHT30;53444;45.822;16.092;2022-08-21T01:47:31;19.50;81.91
66586;SHT30;53444;45.822;16.092;2022-08-21T01:49:58;19.60;81.23
66586;SHT30;53444;45.822;16.092;2022-08-21T01:52:25;19.73;80.97
66586;SHT30;53444;45.822;16.092;2022-08-21T01:54:52;19.80;81.19
66586;SHT30;53444;45.822;16.092;2022-08-21T01:57:20;19.84;80.90
66586;SHT30;53444;45.822;16.092;2022-08-21T01:59:47;19.85;80.60
66586;SHT30;53444;45.822;16.092;2022-08-21T02:02:13;19.91;80.57
66586;SHT30;53444;45.822;16.092;2022-08-21T02:04:40;20.00;80.40
66586;SHT30;53444;45.822;16.092;2022-08-21T02:07:06;19.97;80.33
66586;SHT30;53444;45.822;16.092;2022-08-21T02:09:33;19.93;80.44
66586;SHT30;53444;45.822;16.092;2022-08-21T02:12:00;19.90;80.53
66586;SHT30;53444;45.822;16.092;2022-08-21T02:14:28;19.95;80.18
66586;SHT30;53444;45.822;16.092;2022-08-21T02:16:55;19.93;79.91
66586;SHT30;53444;45.822;16.092;2022-08-21T02:19:22;19.88;80.00
66586;SHT30;53444;45.822;16.092;2022-08-21T02:21:48;19.90;79.90
66586;SHT30;53444;45.822;16.092;2022-08-21T02:24:15;19.85;79.91
66586;SHT30;53444;45.822;16.092;2022-08-21T02:26:42;19.87;79.81
66586;SHT30;53444;45.822;16.092;2022-08-21T02:29:09;19.88;79.85
66586;SHT30;53444;45.822;16.092;2022-08-21T02:31:37;19.88;80.09
66586;SHT30;53444;45.822;16.092;2022-08-21T02:34:03;19.85;80.58
66586;SHT30;53444;45.822;16.092;2022-08-21T02:36:31;19.84;80.76
66586;SHT30;53444;45.822;16.092;2022-08-21T02:38:57;19.88;80.85
66586;SHT30;53444;45.822;16.092;2022-08-21T02:41:24;19.85;81.22
66586;SHT30;53444;45.822;16.092;2022-08-21T02:43:51;19.83;81.66
66586;SHT30;53444;45.822;16.092;2022-08-21T02:46:19;19.83;82.25
66586;SHT30;53444;45.822;16.092;2022-08-21T02:48:48;19.74;82.67
66586;SHT30;53444;45.822;16.092;2022-08-21T02:51:17;19.74;83.07
66586;SHT30;53444;45.822;16.092;2022-08-21T02:53:46;19.78;82.79
66586;SHT30;53444;45.822;16.092;2022-08-21T02:56:15;19.84;83.05
66586;SHT30;53444;45.822;16.092;2022-08-21T02:58:44;19.69;83.49
66586;SHT30;53444;45.822;16.092;2022-08-21T03:01:11;19.67;83.49
66586;SHT30;53444;45.822;16.092;2022-08-21T03:03:39;19.59;84.09
66586;SHT30;53444;45.822;16.092;2022-08-21T03:06:08;19.67;83.66
66586;SHT30;53444;45.822;16.092;2022-08-21T03:08:36;19.70;83.76
66586;SHT30;53444;45.822;16.092;2022-08-21T03:11:04;19.69;83.87
66586;SHT30;53444;45.822;16.092;2022-08-21T03:13:31;19.69;83.95
66586;SHT30;53444;45.822;16.092;2022-08-21T03:15:58;19.69;84.24
66586;SHT30;53444;45.822;16.092;2022-08-21T03:18:25;19.66;84.30
66586;SHT30;53444;45.822;16.092;2022-08-21T03:20:52;19.64;84.25
66586;SHT30;53444;45.822;16.092;2022-08-21T03:23:21;19.56;84.34
66586;SHT30;53444;45.822;16.092;2022-08-21T03:25:48;19.43;84.70
66586;SHT30;53444;45.822;16.092;2022-08-21T03:28:18;19.35;84.99
66586;SHT30;53444;45.822;16.092;2022-08-21T03:30:46;19.37;84.84
66586;SHT30;53444;45.822;16.092;2022-08-21T03:33:14;19.37;83.40
66586;SHT30;53444;45.822;16.092;2022-08-21T03:35:41;19.30;83.51
66586;SHT30;53444;45.822;16.092;2022-08-21T03:38:08;19.30;83.38
66586;SHT30;53444;45.822;16.092;2022-08-21T03:40:36;19.36;83.10
66586;SHT30;53444;45.822;16.092;2022-08-21T03:43:03;19.43;83.07
66586;SHT30;53444;45.822;16.092;2022-08-21T03:45:30;19.49;82.74
66586;SHT30;53444;45.822;16.092;2022-08-21T03:47:59;19.40;83.89
66586;SHT30;53444;45.822;16.092;2022-08-21T03:50:28;19.45;83.83
66586;SHT30;53444;45.822;16.092;2022-08-21T03:52:55;19.53;83.80
66586;SHT30;53444;45.822;16.092;2022-08-21T03:55:23;19.54;83.83
66586;SHT30;53444;45.822;16.092;2022-08-21T03:57:51;19.60;83.57
66586;SHT30;53444;45.822;16.092;2022-08-21T04:00:19;19.60;83.61
66586;SHT30;53444;45.822;16.092;2022-08-21T04:02:47;19.59;83.68
66586;SHT30;53444;45.822;16.092;2022-08-21T04:05:15;19.62;83.68
66586;SHT30;53444;45.822;16.092;2022-08-21T04:07:52;19.54;83.77
66586;SHT30;53444;45.822;16.092;2022-08-21T04:10:19;19.53;84.09
66586;SHT30;53444;45.822;16.092;2022-08-21T04:12:46;19.54;83.94
66586;SHT30;53444;45.822;16.092;2022-08-21T04:15:14;19.53;83.98
66586;SHT30;53444;45.822;16.092;2022-08-21T04:17:41;19.47;84.26
66586;SHT30;53444;45.822;16.092;2022-08-21T04:20:08;19.37;84.64
66586;SHT30;53444;45.822;16.092;2022-08-21T04:22:35;19.43;84.24
66586;SHT30;53444;45.822;16.092;2022-08-21T04:25:02;19.35;84.26
66586;SHT30;53444;45.822;16.092;2022-08-21T04:27:29;19.36;84.35
66586;SHT30;53444;45.822;16.092;2022-08-21T04:29:56;19.39;84.24
66586;SHT30;53444;45.822;16.092;2022-08-21T04:32:24;19.33;84.42
66586;SHT30;53444;45.822;16.092;2022-08-21T04:34:57;19.13;85.04
66586;SHT30;53444;45.822;16.092;2022-08-21T04:37:24;18.99;85.87
66586;SHT30;53444;45.822;16.092;2022-08-21T04:39:51;19.01;86.01
66586;SHT30;53444;45.822;16.092;2022-08-21T04:42:17;19.05;86.15
66586;SHT30;53444;45.822;16.092;2022-08-21T04:44:44;19.16;85.65
66586;SHT30;53444;45.822;16.092;2022-08-21T04:47:11;19.22;85.44
66586;SHT30;53444;45.822;16.092;2022-08-21T04:49:39;19.27;85.16
66586;SHT30;53444;45.822;16.092;2022-08-21T04:52:06;19.36;85.00
66586;SHT30;53444;45.822;16.092;2022-08-21T04:54:33;19.25;85.67
66586;SHT30;53444;45.822;16.092;2022-08-21T04:57:02;19.30;85.51
66586;SHT30;53444;45.822;16.092;2022-08-21T04:59:35;19.32;85.52
66586;SHT30;53444;45.822;16.092;2022-08-21T05:02:05;19.40;85.20
66586;SHT30;53444;45.822;16.092;2022-08-21T05:04:34;19.27;85.97
66586;SHT30;53444;45.822;16.092;2022-08-21T05:07:05;19.29;86.01
66586;SHT30;53444;45.822;16.092;2022-08-21T05:09:34;19.35;85.45
66586;SHT30;53444;45.822;16.092;2022-08-21T05:12:02;19.46;84.38
66586;SHT30;53444;45.822;16.092;2022-08-21T05:14:29;19.50;83.68
66586;SHT30;53444;45.822;16.092;2022-08-21T05:16:56;19.53;83.63
66586;SHT30;53444;45.822;16.092;2022-08-21T05:19:22;19.54;83.34
66586;SHT30;53444;45.822;16.092;2022-08-21T05:21:50;19.56;83.07
66586;SHT30;53444;45.822;16.092;2022-08-21T05:24:19;19.13;86.57
66586;SHT30;53444;45.822;16.092;2022-08-21T05:26:45;18.84;87.80
66586;SHT30;53444;45.822;16.092;2022-08-21T05:29:13;18.87;87.97
66586;SHT30;53444;45.822;16.092;2022-08-21T05:31:40;19.15;87.02
66586;SHT30;53444;45.822;16.092;2022-08-21T05:34:07;19.40;85.42
66586;SHT30;53444;45.822;16.092;2022-08-21T05:36:34;19.54;83.99
66586;SHT30;53444;45.822;16.092;2022-08-21T05:39:02;19.67;83.12
66586;SHT30;53444;45.822;16.092;2022-08-21T05:41:30;19.73;82.53
66586;SHT30;53444;45.822;16.092;2022-08-21T05:43:57;19.78;82.58
66586;SHT30;53444;45.822;16.092;2022-08-21T05:46:23;19.81;81.96
66586;SHT30;53444;45.822;16.092;2022-08-21T05:48:50;19.90;81.72
66586;SHT30;53444;45.822;16.092;2022-08-21T05:51:17;19.98;81.03
66586;SHT30;53444;45.822;16.092;2022-08-21T05:53:44;20.18;80.24
66586;SHT30;53444;45.822;16.092;2022-08-21T05:56:13;20.18;79.96
66586;SHT30;53444;45.822;16.092;2022-08-21T05:58:41;20.14;80.05
66586;SHT30;53444;45.822;16.092;2022-08-21T06:01:08;20.27;79.91
66586;SHT30;53444;45.822;16.092;2022-08-21T06:03:40;20.38;79.34
66586;SHT30;53444;45.822;16.092;2022-08-21T06:06:08;20.45;78.39
66586;SHT30;53444;45.822;16.092;2022-08-21T06:08:35;20.45;78.11
66586;SHT30;53444;45.822;16.092;2022-08-21T06:11:04;20.52;78.11
66586;SHT30;53444;45.822;16.092;2022-08-21T06:13:31;20.62;77.88
66586;SHT30;53444;45.822;16.092;2022-08-21T06:16:04;20.58;78.39
66586;SHT30;53444;45.822;16.092;2022-08-21T06:18:31;20.68;77.98
66586;SHT30;53444;45.822;16.092;2022-08-21T06:20:58;20.76;77.56
66586;SHT30;53444;45.822;16.092;2022-08-21T06:23:25;20.86;77.81
66586;SHT30;53444;45.822;16.092;2022-08-21T06:25:52;20.99;77.55
66586;SHT30;53444;45.822;16.092;2022-08-21T06:28:19;21.16;77.16
66586;SHT30;53444;45.822;16.092;2022-08-21T06:30:45;21.26;77.17
66586;SHT30;53444;45.822;16.092;2022-08-21T06:33:14;21.36;76.93
66586;SHT30;53444;45.822;16.092;2022-08-21T06:35:40;21.31;77.20
66586;SHT30;53444;45.822;16.092;2022-08-21T06:38:08;21.33;76.97
66586;SHT30;53444;45.822;16.092;2022-08-21T06:40:34;21.16;77.50
66586;SHT30;53444;45.822;16.092;2022-08-21T06:43:06;21.24;77.40
66586;SHT30;53444;45.822;16.092;2022-08-21T06:45:32;20.96;78.39
66586;SHT30;53444;45.822;16.092;2022-08-21T06:47:59;21.00;78.33
66586;SHT30;53444;45.822;16.092;2022-08-21T06:50:27;21.10;78.23
66586;SHT30;53444;45.822;16.092;2022-08-21T06:52:59;21.26;77.76
66586;SHT30;53444;45.822;16.092;2022-08-21T06:55:25;21.53;77.39
66586;SHT30;53444;45.822;16.092;2022-08-21T06:57:52;21.67;77.60
66586;SHT30;53444;45.822;16.092;2022-08-21T07:00:19;21.65;78.15
66586;SHT30;53444;45.822;16.092;2022-08-21T07:02:46;21.74;77.96
66586;SHT30;53444;45.822;16.092;2022-08-21T07:05:13;21.75;78.11
66586;SHT30;53444;45.822;16.092;2022-08-21T07:07:41;21.91;77.45
66586;SHT30;53444;45.822;16.092;2022-08-21T07:10:08;21.89;77.70
66586;SHT30;53444;45.822;16.092;2022-08-21T07:12:35;22.12;77.27
66586;SHT30;53444;45.822;16.092;2022-08-21T07:15:03;22.08;76.93
66586;SHT30;53444;45.822;16.092;2022-08-21T07:17:29;22.05;77.25
66586;SHT30;53444;45.822;16.092;2022-08-21T07:19:56;22.22;76.84
66586;SHT30;53444;45.822;16.092;2022-08-21T07:22:23;22.04;77.25
66586;SHT30;53444;45.822;16.092;2022-08-21T07:24:54;21.91;77.76
66586;SHT30;53444;45.822;16.092;2022-08-21T07:27:21;22.26;77.45
66586;SHT30;53444;45.822;16.092;2022-08-21T07:29:48;22.63;76.29
66586;SHT30;53444;45.822;16.092;2022-08-21T07:32:14;22.84;75.52
66586;SHT30;53444;45.822;16.092;2022-08-21T07:34:42;23.03;75.43
66586;SHT30;53444;45.822;16.092;2022-08-21T07:37:09;23.25;74.87
66586;SHT30;53444;45.822;16.092;2022-08-21T07:39:36;23.11;75.06
66586;SHT30;53444;45.822;16.092;2022-08-21T07:42:04;23.42;73.91
66586;SHT30;53444;45.822;16.092;2022-08-21T07:44:31;23.51;73.32
66586;SHT30;53444;45.822;16.092;2022-08-21T07:46:59;23.68;73.00
66586;SHT30;53444;45.822;16.092;2022-08-21T07:49:26;23.66;72.69
66586;SHT30;53444;45.822;16.092;2022-08-21T07:51:53;23.65;72.51
66586;SHT30;53444;45.822;16.092;2022-08-21T07:54:20;23.78;72.21
66586;SHT30;53444;45.822;16.092;2022-08-21T07:56:46;23.95;71.51
66586;SHT30;53444;45.822;16.092;2022-08-21T07:59:15;23.44;72.47
66586;SHT30;53444;45.822;16.092;2022-08-21T08:01:41;23.40;73.87
66586;SHT30;53444;45.822;16.092;2022-08-21T08:04:08;23.51;73.33
66586;SHT30;53444;45.822;16.092;2022-08-21T08:06:35;23.79;72.09
66586;SHT30;53444;45.822;16.092;2022-08-21T08:09:01;24.03;70.87
66586;SHT30;53444;45.822;16.092;2022-08-21T08:11:29;23.76;72.19
66586;SHT30;53444;45.822;16.092;2022-08-21T08:13:56;23.86;72.19
66586;SHT30;53444;45.822;16.092;2022-08-21T08:16:26;23.95;72.09
66586;SHT30;53444;45.822;16.092;2022-08-21T08:18:53;24.09;69.37
66586;SHT30;53444;45.822;16.092;2022-08-21T08:21:21;24.36;67.54
66586;SHT30;53444;45.822;16.092;2022-08-21T08:23:47;24.73;67.17
66586;SHT30;53444;45.822;16.092;2022-08-21T08:26:14;24.59;68.69
66586;SHT30;53444;45.822;16.092;2022-08-21T08:28:42;24.87;67.18
66586;SHT30;53444;45.822;16.092;2022-08-21T08:31:09;24.46;68.20
66586;SHT30;53444;45.822;16.092;2022-08-21T08:33:37;24.90;67.57
66586;SHT30;53444;45.822;16.092;2022-08-21T08:36:04;24.63;67.67
66586;SHT30;53444;45.822;16.092;2022-08-21T08:38:31;24.78;66.37
66586;SHT30;53444;45.822;16.092;2022-08-21T08:41:02;24.68;65.60
66586;SHT30;53444;45.822;16.092;2022-08-21T08:43:33;24.59;63.45
66586;SHT30;53444;45.822;16.092;2022-08-21T08:46:03;24.65;63.96
66586;SHT30;53444;45.822;16.092;2022-08-21T08:48:41;25.22;64.51
66586;SHT30;53444;45.822;16.092;2022-08-21T08:51:15;24.81;62.08
66586;SHT30;53444;45.822;16.092;2022-08-21T08:53:48;25.04;61.80
66586;SHT30;53444;45.822;16.092;2022-08-21T08:56:19;24.94;62.84
66586;SHT30;53444;45.822;16.092;2022-08-21T08:58:47;24.77;62.57
66586;SHT30;53444;45.822;16.092;2022-08-21T09:01:17;25.08;60.89
66586;SHT30;53444;45.822;16.092;2022-08-21T09:03:47;25.08;60.94
66586;SHT30;53444;45.822;16.092;2022-08-21T09:06:28;25.33;59.92
66586;SHT30;53444;45.822;16.092;2022-08-21T09:09:05;25.58;57.43
66586;SHT30;53444;45.822;16.092;2022-08-21T09:11:42;25.50;57.68
66586;SHT30;53444;45.822;16.092;2022-08-21T09:14:24;26.08;57.20
66586;SHT30;53444;45.822;16.092;2022-08-21T09:16:56;26.48;45.57
66586;SHT30;53444;45.822;16.092;2022-08-21T09:19:38;26.86;44.92
66586;SHT30;53444;45.822;16.092;2022-08-21T09:22:09;27.22;44.68
66586;SHT30;53444;45.822;16.092;2022-08-21T09:24:49;27.42;43.59
66586;SHT30;53444;45.822;16.092;2022-08-21T09:27:20;27.61;43.52
66586;SHT30;53444;45.822;16.092;2022-08-21T09:29:49;27.67;43.29
66586;SHT30;53444;45.822;16.092;2022-08-21T09:32:19;27.71;42.77
66586;SHT30;53444;45.822;16.092;2022-08-21T09:34:59;27.43;42.08
66586;SHT30;53444;45.822;16.092;2022-08-21T09:37:27;27.35;42.39
66586;SHT30;53444;45.822;16.092;2022-08-21T09:39:56;27.32;42.28
66586;SHT30;53444;45.822;16.092;2022-08-21T09:42:27;27.26;42.54
66586;SHT30;53444;45.822;16.092;2022-08-21T09:45:11;27.37;42.82
66586;SHT30;53444;45.822;16.092;2022-08-21T09:47:38;27.70;42.04
66586;SHT30;53444;45.822;16.092;2022-08-21T09:50:11;28.22;41.68
66586;SHT30;53444;45.822;16.092;2022-08-21T09:52:44;28.66;40.38
66586;SHT30;53444;45.822;16.092;2022-08-21T09:55:18;28.02;40.93
66586;SHT30;53444;45.822;16.092;2022-08-21T09:57:59;28.24;41.41
66586;SHT30;53444;45.822;16.092;2022-08-21T10:00:29;28.44;41.38
66586;SHT30;53444;45.822;16.092;2022-08-21T10:03:08;28.25;41.51
66586;SHT30;53444;45.822;16.092;2022-08-21T10:05:37;28.63;40.80
66586;SHT30;53444;45.822;16.092;2022-08-21T10:08:04;29.04;41.49
66586;SHT30;53444;45.822;16.092;2022-08-21T10:10:36;28.96;40.51
66586;SHT30;53444;45.822;16.092;2022-08-21T10:13:06;28.72;40.74
66586;SHT30;53444;45.822;16.092;2022-08-21T10:15:47;28.24;42.48
66586;SHT30;53444;45.822;16.092;2022-08-21T10:18:21;28.35;42.18
66586;SHT30;53444;45.822;16.092;2022-08-21T10:20:52;28.35;42.55
66586;SHT30;53444;45.822;16.092;2022-08-21T10:23:29;28.25;42.96
66586;SHT30;53444;45.822;16.092;2022-08-21T10:26:07;28.48;42.68
66586;SHT30;53444;45.822;16.092;2022-08-21T10:28:39;29.26;41.60
66586;SHT30;53444;45.822;16.092;2022-08-21T10:31:17;29.07;41.19
66586;SHT30;53444;45.822;16.092;2022-08-21T10:33:50;29.30;39.80
66586;SHT30;53444;45.822;16.092;2022-08-21T10:36:24;28.63;40.56
66586;SHT30;53444;45.822;16.092;2022-08-21T10:39:02;29.03;40.51
66586;SHT30;53444;45.822;16.092;2022-08-21T10:41:40;29.31;39.57
66586;SHT30;53444;45.822;16.092;2022-08-21T10:44:17;28.88;40.00
66586;SHT30;53444;45.822;16.092;2022-08-21T10:46:52;28.55;40.79
66586;SHT30;53444;45.822;16.092;2022-08-21T10:49:25;28.63;40.77
66586;SHT30;53444;45.822;16.092;2022-08-21T10:52:08;29.24;40.01
66586;SHT30;53444;45.822;16.092;2022-08-21T10:54:43;29.74;39.30
66586;SHT30;53444;45.822;16.092;2022-08-21T10:57:21;29.97;38.38
66586;SHT30;53444;45.822;16.092;2022-08-21T10:59:53;29.78;38.63
66586;SHT30;53444;45.822;16.092;2022-08-21T11:02:26;29.80;39.18
66586;SHT30;53444;45.822;16.092;2022-08-21T11:04:59;29.55;39.65
66586;SHT30;53444;45.822;16.092;2022-08-21T11:07:34;29.33;39.39
66586;SHT30;53444;45.822;16.092;2022-08-21T11:10:04;28.80;40.52
66586;SHT30;53444;45.822;16.092;2022-08-21T11:12:39;28.72;40.71
66586;SHT30;53444;45.822;16.092;2022-08-21T11:15:15;28.45;41.29
66586;SHT30;53444;45.822;16.092;2022-08-21T11:17:47;28.12;41.28
66586;SHT30;53444;45.822;16.092;2022-08-21T11:20:29;27.67;41.22
66586;SHT30;53444;45.822;16.092;2022-08-21T11:23:03;27.57;41.80
66586;SHT30;53444;45.822;16.092;2022-08-21T11:25:35;27.45;42.45
66586;SHT30;53444;45.822;16.092;2022-08-21T11:28:08;27.29;42.95
66586;SHT30;53444;45.822;16.092;2022-08-21T11:30:44;27.33;43.22
66586;SHT30;53444;45.822;16.092;2022-08-21T11:33:26;27.19;43.32
66586;SHT30;53444;45.822;16.092;2022-08-21T11:35:58;27.25;43.65
66586;SHT30;53444;45.822;16.092;2022-08-21T11:38:34;27.43;43.39
66586;SHT30;53444;45.822;16.092;2022-08-21T11:41:13;27.64;43.47
66586;SHT30;53444;45.822;16.092;2022-08-21T11:43:44;27.86;43.33
66586;SHT30;53444;45.822;16.092;2022-08-21T11:46:26;28.05;42.93
66586;SHT30;53444;45.822;16.092;2022-08-21T11:49:10;28.19;42.72
66586;SHT30;53444;45.822;16.092;2022-08-21T11:51:44;28.11;43.10
66586;SHT30;53444;45.822;16.092;2022-08-21T11:54:21;27.81;43.87
66586;SHT30;53444;45.822;16.092;2022-08-21T11:56:54;27.58;44.77
66586;SHT30;53444;45.822;16.092;2022-08-21T11:59:34;27.27;45.93
66586;SHT30;53444;45.822;16.092;2022-08-21T12:02:06;27.17;46.11
66586;SHT30;53444;45.822;16.092;2022-08-21T12:04:43;26.86;46.58
66586;SHT30;53444;45.822;16.092;2022-08-21T12:07:14;26.76;47.19
66586;SHT30;53444;45.822;16.092;2022-08-21T12:09:54;26.81;47.27
66586;SHT30;53444;45.822;16.092;2022-08-21T12:12:27;26.81;47.44
66586;SHT30;53444;45.822;16.092;2022-08-21T12:15:12;26.86;47.66
66586;SHT30;53444;45.822;16.092;2022-08-21T12:17:40;26.99;47.43
66586;SHT30;53444;45.822;16.092;2022-08-21T12:20:25;27.20;46.97
66586;SHT30;53444;45.822;16.092;2022-08-21T12:23:04;27.12;46.96
66586;SHT30;53444;45.822;16.092;2022-08-21T12:25:39;27.27;47.03
66586;SHT30;53444;45.822;16.092;2022-08-21T12:28:08;27.27;46.75
66586;SHT30;53444;45.822;16.092;2022-08-21T12:30:37;27.25;47.00
66586;SHT30;53444;45.822;16.092;2022-08-21T12:33:16;27.32;46.76
66586;SHT30;53444;45.822;16.092;2022-08-21T12:35:46;27.40;46.91
66586;SHT30;53444;45.822;16.092;2022-08-21T12:38:17;27.33;47.38
66586;SHT30;53444;45.822;16.092;2022-08-21T12:40:50;27.35;47.38
66586;SHT30;53444;45.822;16.092;2022-08-21T12:43:20;27.42;46.91
66586;SHT30;53444;45.822;16.092;2022-08-21T12:45:49;27.46;46.78
66586;SHT30;53444;45.822;16.092;2022-08-21T12:48:21;27.35;47.07
66586;SHT30;53444;45.822;16.092;2022-08-21T12:50:51;27.13;47.60
66586;SHT30;53444;45.822;16.092;2022-08-21T12:53:26;27.03;47.88
66586;SHT30;53444;45.822;16.092;2022-08-21T12:55:56;26.74;47.88
66586;SHT30;53444;45.822;16.092;2022-08-21T12:58:27;26.69;45.99
66586;SHT30;53444;45.822;16.092;2022-08-21T13:01:00;26.40;46.34
66586;SHT30;53444;45.822;16.092;2022-08-21T13:03:28;26.30;46.83
66586;SHT30;53444;45.822;16.092;2022-08-21T13:05:55;26.47;46.15
66586;SHT30;53444;45.822;16.092;2022-08-21T13:08:24;26.44;46.65
66586;SHT30;53444;45.822;16.092;2022-08-21T13:10:59;26.37;48.41
66586;SHT30;53444;45.822;16.092;2022-08-21T13:13:28;26.33;48.61
66586;SHT30;53444;45.822;16.092;2022-08-21T13:16:00;26.35;48.48
66586;SHT30;53444;45.822;16.092;2022-08-21T13:18:30;26.33;48.92
66586;SHT30;53444;45.822;16.092;2022-08-21T13:21:06;26.43;48.57
66586;SHT30;53444;45.822;16.092;2022-08-21T13:23:34;26.43;48.76
66586;SHT30;53444;45.822;16.092;2022-08-21T13:26:12;26.40;48.75
66586;SHT30;53444;45.822;16.092;2022-08-21T13:28:39;26.55;48.60
66586;SHT30;53444;45.822;16.092;2022-08-21T13:31:08;26.65;48.62
66586;SHT30;53444;45.822;16.092;2022-08-21T13:33:37;26.59;48.35
66586;SHT30;53444;45.822;16.092;2022-08-21T13:36:09;26.68;48.95
66586;SHT30;53444;45.822;16.092;2022-08-21T13:38:38;26.84;47.97
66586;SHT30;53444;45.822;16.092;2022-08-21T13:41:12;26.99;47.32
66586;SHT30;53444;45.822;16.092;2022-08-21T13:43:45;27.16;46.59
66586;SHT30;53444;45.822;16.092;2022-08-21T13:46:13;27.23;45.37
66586;SHT30;53444;45.822;16.092;2022-08-21T13:48:41;27.37;45.04
66586;SHT30;53444;45.822;16.092;2022-08-21T13:51:09;27.37;44.33
66586;SHT30;53444;45.822;16.092;2022-08-21T13:53:45;27.45;44.06
66586;SHT30;53444;45.822;16.092;2022-08-21T13:56:23;27.45;43.91
66586;SHT30;53444;45.822;16.092;2022-08-21T13:58:51;27.33;43.11
66586;SHT30;53444;45.822;16.092;2022-08-21T14:01:21;26.92;43.46
66586;SHT30;53444;45.822;16.092;2022-08-21T14:03:49;26.94;43.77
66586;SHT30;53444;45.822;16.092;2022-08-21T14:06:19;26.76;44.06
66586;SHT30;53444;45.822;16.092;2022-08-21T14:08:50;26.69;44.68
66586;SHT30;53444;45.822;16.092;2022-08-21T14:11:17;26.71;45.00
66586;SHT30;53444;45.822;16.092;2022-08-21T14:13:48;26.74;44.97
66586;SHT30;53444;45.822;16.092;2022-08-21T14:16:18;26.71;44.52
66586;SHT30;53444;45.822;16.092;2022-08-21T14:18:51;26.64;44.87
66586;SHT30;53444;45.822;16.092;2022-08-21T14:21:31;26.57;44.71
66586;SHT30;53444;45.822;16.092;2022-08-21T14:24:02;26.47;44.91
66586;SHT30;53444;45.822;16.092;2022-08-21T14:26:29;26.38;45.06
66586;SHT30;53444;45.822;16.092;2022-08-21T14:28:59;26.43;44.95
66586;SHT30;53444;45.822;16.092;2022-08-21T14:31:30;26.38;44.68
66586;SHT30;53444;45.822;16.092;2022-08-21T14:34:00;26.49;44.80
66586;SHT30;53444;45.822;16.092;2022-08-21T14:36:27;26.64;44.66
66586;SHT30;53444;45.822;16.092;2022-08-21T14:38:53;26.76;44.40
66586;SHT30;53444;45.822;16.092;2022-08-21T14:41:22;26.85;44.37
66586;SHT30;53444;45.822;16.092;2022-08-21T14:43:52;26.81;43.98
66586;SHT30;53444;45.822;16.092;2022-08-21T14:46:24;26.84;44.38
66586;SHT30;53444;45.822;16.092;2022-08-21T14:48:51;26.81;44.69
66586;SHT30;53444;45.822;16.092;2022-08-21T14:51:18;26.76;44.87
66586;SHT30;53444;45.822;16.092;2022-08-21T14:53:46;26.76;44.80
66586;SHT30;53444;45.822;16.092;2022-08-21T14:56:13;26.54;44.89
66586;SHT30;53444;45.822;16.092;2022-08-21T14:58:42;26.40;45.08
66586;SHT30;53444;45.822;16.092;2022-08-21T15:01:12;26.45;45.37
66586;SHT30;53444;45.822;16.092;2022-08-21T15:03:40;26.43;45.70
66586;SHT30;53444;45.822;16.092;2022-08-21T15:06:08;26.41;45.73
66586;SHT30;53444;45.822;16.092;2022-08-21T15:08:37;26.38;45.78
66586;SHT30;53444;45.822;16.092;2022-08-21T15:11:05;26.43;45.60
66586;SHT30;53444;45.822;16.092;2022-08-21T15:13:33;26.47;45.50
66586;SHT30;53444;45.822;16.092;2022-08-21T15:15:59;26.48;45.26
66586;SHT30;53444;45.822;16.092;2022-08-21T15:18:28;26.45;45.53
66586;SHT30;53444;45.822;16.092;2022-08-21T15:20:56;26.38;45.79
66586;SHT30;53444;45.822;16.092;2022-08-21T15:23:23;26.30;46.05
66586;SHT30;53444;45.822;16.092;2022-08-21T15:25:51;26.31;46.24
66586;SHT30;53444;45.822;16.092;2022-08-21T15:28:19;26.23;46.47
66586;SHT30;53444;45.822;16.092;2022-08-21T15:30:46;26.24;46.18